sensor_id;sensor_type;location;lat;lon;timestamp;P1;durP1;ratioP1;P2;durP2;ratioP2
73452;SDS011;61687;56.232;43.854;2023-08-17T00:01:51;20.08;;;11.48;;
73452;SDS011;61687;56.232;43.854;2023-08-17T00:04:17;19.67;;;11.47;;
73452;SDS011;61687;56.232;43.854;2023-08-17T00:06:44;19.98;;;11.85;;
73452;SDS011;61687;56.232;43.854;2023-08-17T00:09:09;20.88;;;11.63;;
73452;SDS011;61687;56.232;43.854;2023-08-17T00:11:35;22.30;;;13.50;;
73452;SDS011;61687;56.232;43.854;2023-08-17T00:14:01;21.48;;;12.70;;
73452;SDS011;61687;56.232;43.854;2023-08-17T00:16:28;19.55;;;12.32;;
73452;SDS011;61687;56.232;43.854;2023-08-17T00:18:54;23.38;;;12.25;;
73452;SDS011;61687;56.232;43.854;2023-08-17T00:21:19;20.90;;;11.53;;
73452;SDS011;61687;56.232;43.854;2023-08-17T00:23:45;18.42;;;11.43;;
73452;SDS011;61687;56.232;43.854;2023-08-17T00:26:11;18.88;;;11.63;;
73452;SDS011;61687;56.232;43.854;2023-08-17T00:28:37;19.65;;;12.07;;
73452;SDS011;61687;56.232;43.854;2023-08-17T00:31:03;22.77;;;12.33;;
73452;SDS011;61687;56.232;43.854;2023-08-17T00:33:29;24.73;;;13.20;;
73452;SDS011;61687;56.232;43.854;2023-08-17T00:35:55;26.27;;;14.93;;
73452;SDS011;61687;56.232;43.854;2023-08-17T00:38:21;23.17;;;13.97;;
73452;SDS011;61687;56.232;43.854;2023-08-17T00:40:47;24.58;;;14.68;;
73452;SDS011;61687;56.232;43.854;2023-08-17T00:43:13;26.20;;;14.27;;
73452;SDS011;61687;56.232;43.854;2023-08-17T00:45:39;27.17;;;14.95;;
73452;SDS011;61687;56.232;43.854;2023-08-17T00:48:06;24.45;;;15.18;;
73452;SDS011;61687;56.232;43.854;2023-08-17T00:50:34;27.50;;;16.00;;
73452;SDS011;61687;56.232;43.854;2023-08-17T00:53:02;25.35;;;15.38;;
73452;SDS011;61687;56.232;43.854;2023-08-17T00:55:28;26.13;;;15.35;;
73452;SDS011;61687;56.232;43.854;2023-08-17T00:57:55;26.52;;;15.02;;
73452;SDS011;61687;56.232;43.854;2023-08-17T01:00:21;23.33;;;13.55;;
73452;SDS011;61687;56.232;43.854;2023-08-17T01:02:49;20.57;;;13.23;;
73452;SDS011;61687;56.232;43.854;2023-08-17T01:05:16;24.00;;;13.90;;
73452;SDS011;61687;56.232;43.854;2023-08-17T01:07:42;22.13;;;13.82;;
73452;SDS011;61687;56.232;43.854;2023-08-17T01:10:08;24.23;;;13.53;;
73452;SDS011;61687;56.232;43.854;2023-08-17T01:12:56;23.58;;;13.52;;
73452;SDS011;61687;56.232;43.854;2023-08-17T01:15:35;21.88;;;14.43;;
73452;SDS011;61687;56.232;43.854;2023-08-17T01:20:31;25.35;;;13.65;;
73452;SDS011;61687;56.232;43.854;2023-08-17T01:23:04;23.63;;;13.73;;
73452;SDS011;61687;56.232;43.854;2023-08-17T01:25:31;24.60;;;14.50;;
73452;SDS011;61687;56.232;43.854;2023-08-17T01:28:02;24.30;;;14.38;;
73452;SDS011;61687;56.232;43.854;2023-08-17T01:30:29;23.40;;;14.18;;
73452;SDS011;61687;56.232;43.854;2023-08-17T01:33:07;23.73;;;14.13;;
73452;SDS011;61687;56.232;43.854;2023-08-17T01:35:54;24.50;;;13.93;;
73452;SDS011;61687;56.232;43.854;2023-08-17T01:38:29;24.90;;;14.00;;
73452;SDS011;61687;56.232;43.854;2023-08-17T01:40:57;22.92;;;13.82;;
73452;SDS011;61687;56.232;43.854;2023-08-17T01:43:26;22.58;;;13.50;;
73452;SDS011;61687;56.232;43.854;2023-08-17T01:45:52;21.98;;;13.38;;
73452;SDS011;61687;56.232;43.854;2023-08-17T01:48:19;21.57;;;12.57;;
73452;SDS011;61687;56.232;43.854;2023-08-17T01:50:45;24.60;;;13.73;;
73452;SDS011;61687;56.232;43.854;2023-08-17T01:53:10;27.48;;;14.05;;
73452;SDS011;61687;56.232;43.854;2023-08-17T01:55:37;23.47;;;13.23;;
73452;SDS011;61687;56.232;43.854;2023-08-17T01:58:06;23.48;;;13.73;;
73452;SDS011;61687;56.232;43.854;2023-08-17T02:00:31;23.23;;;13.43;;
73452;SDS011;61687;56.232;43.854;2023-08-17T02:02:57;24.43;;;13.27;;
73452;SDS011;61687;56.232;43.854;2023-08-17T02:05:24;24.58;;;14.02;;
73452;SDS011;61687;56.232;43.854;2023-08-17T02:07:50;24.30;;;13.15;;
73452;SDS011;61687;56.232;43.854;2023-08-17T02:10:16;25.75;;;14.07;;
73452;SDS011;61687;56.232;43.854;2023-08-17T02:12:42;27.17;;;13.77;;
73452;SDS011;61687;56.232;43.854;2023-08-17T02:15:08;26.33;;;13.68;;
73452;SDS011;61687;56.232;43.854;2023-08-17T02:17:34;25.08;;;13.57;;
73452;SDS011;61687;56.232;43.854;2023-08-17T02:20:00;27.83;;;14.23;;
73452;SDS011;61687;56.232;43.854;2023-08-17T02:22:26;25.35;;;14.48;;
73452;SDS011;61687;56.232;43.854;2023-08-17T02:24:54;27.40;;;14.45;;
73452;SDS011;61687;56.232;43.854;2023-08-17T02:27:21;30.97;;;15.00;;
73452;SDS011;61687;56.232;43.854;2023-08-17T02:29:47;29.23;;;15.02;;
73452;SDS011;61687;56.232;43.854;2023-08-17T02:32:13;30.70;;;15.65;;
73452;SDS011;61687;56.232;43.854;2023-08-17T02:34:39;25.57;;;14.63;;
73452;SDS011;61687;56.232;43.854;2023-08-17T02:37:05;30.10;;;14.48;;
73452;SDS011;61687;56.232;43.854;2023-08-17T02:39:31;23.90;;;13.95;;
73452;SDS011;61687;56.232;43.854;2023-08-17T02:41:56;27.05;;;14.10;;
73452;SDS011;61687;56.232;43.854;2023-08-17T02:44:22;25.97;;;14.70;;
73452;SDS011;61687;56.232;43.854;2023-08-17T02:46:48;22.90;;;14.30;;
73452;SDS011;61687;56.232;43.854;2023-08-17T02:49:14;27.10;;;14.57;;
73452;SDS011;61687;56.232;43.854;2023-08-17T02:51:40;27.55;;;14.30;;
73452;SDS011;61687;56.232;43.854;2023-08-17T02:54:06;25.90;;;14.60;;
73452;SDS011;61687;56.232;43.854;2023-08-17T02:56:32;26.50;;;14.48;;
73452;SDS011;61687;56.232;43.854;2023-08-17T02:58:58;28.00;;;14.80;;
73452;SDS011;61687;56.232;43.854;2023-08-17T03:01:24;29.02;;;14.77;;
73452;SDS011;61687;56.232;43.854;2023-08-17T03:03:50;25.80;;;14.98;;
73452;SDS011;61687;56.232;43.854;2023-08-17T03:06:16;27.67;;;14.97;;
73452;SDS011;61687;56.232;43.854;2023-08-17T03:08:42;28.98;;;15.40;;
73452;SDS011;61687;56.232;43.854;2023-08-17T03:11:10;25.27;;;14.68;;
73452;SDS011;61687;56.232;43.854;2023-08-17T03:13:36;25.80;;;14.60;;
73452;SDS011;61687;56.232;43.854;2023-08-17T03:16:02;25.90;;;14.60;;
73452;SDS011;61687;56.232;43.854;2023-08-17T03:18:28;28.60;;;15.90;;
73452;SDS011;61687;56.232;43.854;2023-08-17T03:20:54;30.92;;;16.05;;
73452;SDS011;61687;56.232;43.854;2023-08-17T03:23:20;34.43;;;15.53;;
73452;SDS011;61687;56.232;43.854;2023-08-17T03:25:50;24.77;;;15.57;;
73452;SDS011;61687;56.232;43.854;2023-08-17T03:28:17;23.98;;;14.73;;
73452;SDS011;61687;56.232;43.854;2023-08-17T03:30:43;27.55;;;15.00;;
73452;SDS011;61687;56.232;43.854;2023-08-17T03:33:09;43.28;;;15.57;;
73452;SDS011;61687;56.232;43.854;2023-08-17T03:35:35;27.10;;;14.50;;
73452;SDS011;61687;56.232;43.854;2023-08-17T03:38:01;27.50;;;15.30;;
73452;SDS011;61687;56.232;43.854;2023-08-17T03:40:27;29.25;;;15.35;;
73452;SDS011;61687;56.232;43.854;2023-08-17T03:42:53;24.63;;;15.87;;
73452;SDS011;61687;56.232;43.854;2023-08-17T03:45:19;28.40;;;15.65;;
73452;SDS011;61687;56.232;43.854;2023-08-17T03:47:48;29.05;;;16.70;;
73452;SDS011;61687;56.232;43.854;2023-08-17T03:50:14;27.15;;;14.93;;
73452;SDS011;61687;56.232;43.854;2023-08-17T03:52:41;27.07;;;15.20;;
73452;SDS011;61687;56.232;43.854;2023-08-17T03:55:08;28.67;;;15.98;;
73452;SDS011;61687;56.232;43.854;2023-08-17T03:57:35;25.15;;;15.38;;
73452;SDS011;61687;56.232;43.854;2023-08-17T04:00:01;27.30;;;15.38;;
73452;SDS011;61687;56.232;43.854;2023-08-17T04:02:28;24.30;;;15.43;;
73452;SDS011;61687;56.232;43.854;2023-08-17T04:04:54;25.00;;;15.50;;
73452;SDS011;61687;56.232;43.854;2023-08-17T04:07:21;28.40;;;15.30;;
73452;SDS011;61687;56.232;43.854;2023-08-17T04:09:47;25.90;;;15.00;;
73452;SDS011;61687;56.232;43.854;2023-08-17T04:12:13;26.83;;;14.77;;
73452;SDS011;61687;56.232;43.854;2023-08-17T04:14:39;24.88;;;14.68;;
73452;SDS011;61687;56.232;43.854;2023-08-17T04:17:05;26.73;;;15.43;;
73452;SDS011;61687;56.232;43.854;2023-08-17T04:19:32;27.67;;;15.98;;
73452;SDS011;61687;56.232;43.854;2023-08-17T04:21:58;31.60;;;17.33;;
73452;SDS011;61687;56.232;43.854;2023-08-17T04:24:24;29.77;;;16.73;;
73452;SDS011;61687;56.232;43.854;2023-08-17T04:26:50;32.40;;;16.38;;
73452;SDS011;61687;56.232;43.854;2023-08-17T04:29:16;26.60;;;15.60;;
73452;SDS011;61687;56.232;43.854;2023-08-17T04:31:41;24.77;;;14.90;;
73452;SDS011;61687;56.232;43.854;2023-08-17T04:34:07;25.25;;;15.60;;
73452;SDS011;61687;56.232;43.854;2023-08-17T04:36:33;27.93;;;16.40;;
73452;SDS011;61687;56.232;43.854;2023-08-17T04:38:59;27.58;;;16.15;;
73452;SDS011;61687;56.232;43.854;2023-08-17T04:41:25;30.93;;;16.20;;
73452;SDS011;61687;56.232;43.854;2023-08-17T04:43:51;26.67;;;16.13;;
73452;SDS011;61687;56.232;43.854;2023-08-17T04:46:17;23.90;;;15.25;;
73452;SDS011;61687;56.232;43.854;2023-08-17T04:48:43;27.73;;;15.70;;
73452;SDS011;61687;56.232;43.854;2023-08-17T04:51:10;27.77;;;15.60;;
73452;SDS011;61687;56.232;43.854;2023-08-17T04:53:36;23.98;;;14.88;;
73452;SDS011;61687;56.232;43.854;2023-08-17T04:56:02;29.95;;;15.30;;
73452;SDS011;61687;56.232;43.854;2023-08-17T04:58:30;23.40;;;14.63;;
73452;SDS011;61687;56.232;43.854;2023-08-17T05:00:56;21.30;;;15.07;;
73452;SDS011;61687;56.232;43.854;2023-08-17T05:03:22;26.40;;;14.18;;
73452;SDS011;61687;56.232;43.854;2023-08-17T05:05:48;23.33;;;13.32;;
73452;SDS011;61687;56.232;43.854;2023-08-17T05:08:14;19.40;;;13.43;;
73452;SDS011;61687;56.232;43.854;2023-08-17T05:10:40;19.77;;;13.20;;
73452;SDS011;61687;56.232;43.854;2023-08-17T05:13:06;20.33;;;13.48;;
73452;SDS011;61687;56.232;43.854;2023-08-17T05:15:32;25.37;;;13.73;;
73452;SDS011;61687;56.232;43.854;2023-08-17T05:17:58;26.40;;;13.88;;
73452;SDS011;61687;56.232;43.854;2023-08-17T05:20:24;25.02;;;14.60;;
73452;SDS011;61687;56.232;43.854;2023-08-17T05:22:50;23.33;;;14.13;;
73452;SDS011;61687;56.232;43.854;2023-08-17T05:25:17;21.63;;;13.70;;
73452;SDS011;61687;56.232;43.854;2023-08-17T05:27:44;23.40;;;13.65;;
73452;SDS011;61687;56.232;43.854;2023-08-17T05:30:10;24.40;;;13.88;;
73452;SDS011;61687;56.232;43.854;2023-08-17T05:32:36;23.53;;;12.97;;
73452;SDS011;61687;56.232;43.854;2023-08-17T05:35:01;22.33;;;13.18;;
73452;SDS011;61687;56.232;43.854;2023-08-17T05:37:29;24.80;;;12.85;;
73452;SDS011;61687;56.232;43.854;2023-08-17T05:39:55;24.73;;;13.47;;
73452;SDS011;61687;56.232;43.854;2023-08-17T05:42:21;20.08;;;12.50;;
73452;SDS011;61687;56.232;43.854;2023-08-17T05:44:47;20.50;;;12.95;;
73452;SDS011;61687;56.232;43.854;2023-08-17T05:47:13;20.90;;;12.73;;
73452;SDS011;61687;56.232;43.854;2023-08-17T05:49:44;20.50;;;12.93;;
73452;SDS011;61687;56.232;43.854;2023-08-17T05:52:10;18.65;;;11.88;;
73452;SDS011;61687;56.232;43.854;2023-08-17T05:54:35;20.17;;;12.00;;
73452;SDS011;61687;56.232;43.854;2023-08-17T05:57:01;20.15;;;12.40;;
73452;SDS011;61687;56.232;43.854;2023-08-17T05:59:28;18.98;;;12.35;;
73452;SDS011;61687;56.232;43.854;2023-08-17T06:01:55;18.08;;;11.13;;
73452;SDS011;61687;56.232;43.854;2023-08-17T06:04:21;21.90;;;11.07;;
73452;SDS011;61687;56.232;43.854;2023-08-17T06:06:47;17.05;;;11.52;;
73452;SDS011;61687;56.232;43.854;2023-08-17T06:09:13;21.83;;;12.15;;
73452;SDS011;61687;56.232;43.854;2023-08-17T06:11:39;19.80;;;11.10;;
73452;SDS011;61687;56.232;43.854;2023-08-17T06:14:05;15.73;;;11.18;;
73452;SDS011;61687;56.232;43.854;2023-08-17T06:16:31;21.30;;;11.07;;
73452;SDS011;61687;56.232;43.854;2023-08-17T06:18:58;16.77;;;10.63;;
73452;SDS011;61687;56.232;43.854;2023-08-17T06:21:24;18.17;;;11.30;;
73452;SDS011;61687;56.232;43.854;2023-08-17T06:23:50;18.20;;;11.17;;
73452;SDS011;61687;56.232;43.854;2023-08-17T06:26:15;20.73;;;11.77;;
73452;SDS011;61687;56.232;43.854;2023-08-17T06:28:41;15.30;;;11.43;;
73452;SDS011;61687;56.232;43.854;2023-08-17T06:31:07;16.88;;;11.43;;
73452;SDS011;61687;56.232;43.854;2023-08-17T06:33:33;18.27;;;11.63;;
73452;SDS011;61687;56.232;43.854;2023-08-17T06:35:59;18.90;;;11.43;;
73452;SDS011;61687;56.232;43.854;2023-08-17T06:38:25;16.70;;;11.85;;
73452;SDS011;61687;56.232;43.854;2023-08-17T06:40:51;16.50;;;11.73;;
73452;SDS011;61687;56.232;43.854;2023-08-17T06:43:18;15.85;;;11.63;;
73452;SDS011;61687;56.232;43.854;2023-08-17T06:45:44;16.23;;;11.43;;
73452;SDS011;61687;56.232;43.854;2023-08-17T06:48:10;17.45;;;11.32;;
73452;SDS011;61687;56.232;43.854;2023-08-17T06:50:36;19.27;;;11.75;;
73452;SDS011;61687;56.232;43.854;2023-08-17T06:53:02;19.77;;;11.00;;
73452;SDS011;61687;56.232;43.854;2023-08-17T06:55:28;13.93;;;10.98;;
73452;SDS011;61687;56.232;43.854;2023-08-17T06:57:54;15.15;;;10.88;;
73452;SDS011;61687;56.232;43.854;2023-08-17T07:00:20;22.42;;;11.00;;
73452;SDS011;61687;56.232;43.854;2023-08-17T07:02:47;18.95;;;10.77;;
73452;SDS011;61687;56.232;43.854;2023-08-17T07:05:16;16.23;;;10.37;;
73452;SDS011;61687;56.232;43.854;2023-08-17T07:07:43;14.55;;;9.75;;
73452;SDS011;61687;56.232;43.854;2023-08-17T07:10:10;15.25;;;9.70;;
73452;SDS011;61687;56.232;43.854;2023-08-17T07:12:39;14.07;;;9.82;;
73452;SDS011;61687;56.232;43.854;2023-08-17T07:15:05;14.80;;;9.75;;
73452;SDS011;61687;56.232;43.854;2023-08-17T07:17:32;13.97;;;9.53;;
73452;SDS011;61687;56.232;43.854;2023-08-17T07:19:59;16.02;;;9.48;;
73452;SDS011;61687;56.232;43.854;2023-08-17T07:22:26;13.45;;;9.98;;
73452;SDS011;61687;56.232;43.854;2023-08-17T07:24:51;12.13;;;9.15;;
73452;SDS011;61687;56.232;43.854;2023-08-17T07:27:17;16.83;;;10.53;;
73452;SDS011;61687;56.232;43.854;2023-08-17T07:29:43;16.02;;;10.52;;
73452;SDS011;61687;56.232;43.854;2023-08-17T07:32:09;19.88;;;10.68;;
73452;SDS011;61687;56.232;43.854;2023-08-17T07:34:35;14.75;;;10.93;;
73452;SDS011;61687;56.232;43.854;2023-08-17T07:37:03;15.73;;;10.40;;
73452;SDS011;61687;56.232;43.854;2023-08-17T07:39:31;13.52;;;9.60;;
73452;SDS011;61687;56.232;43.854;2023-08-17T07:41:57;14.45;;;9.77;;
73452;SDS011;61687;56.232;43.854;2023-08-17T07:44:23;18.80;;;9.77;;
73452;SDS011;61687;56.232;43.854;2023-08-17T07:46:49;17.20;;;10.43;;
73452;SDS011;61687;56.232;43.854;2023-08-17T07:49:15;16.20;;;10.25;;
73452;SDS011;61687;56.232;43.854;2023-08-17T07:51:41;14.93;;;10.50;;
73452;SDS011;61687;56.232;43.854;2023-08-17T07:54:07;14.93;;;9.80;;
73452;SDS011;61687;56.232;43.854;2023-08-17T07:56:33;13.63;;;10.03;;
73452;SDS011;61687;56.232;43.854;2023-08-17T07:58:59;16.85;;;9.98;;
73452;SDS011;61687;56.232;43.854;2023-08-17T08:01:25;14.73;;;9.57;;
73452;SDS011;61687;56.232;43.854;2023-08-17T08:03:51;17.50;;;9.67;;
73452;SDS011;61687;56.232;43.854;2023-08-17T08:06:16;16.27;;;8.85;;
73452;SDS011;61687;56.232;43.854;2023-08-17T08:08:42;14.52;;;8.90;;
73452;SDS011;61687;56.232;43.854;2023-08-17T08:11:09;15.30;;;8.60;;
73452;SDS011;61687;56.232;43.854;2023-08-17T08:13:35;12.50;;;8.27;;
73452;SDS011;61687;56.232;43.854;2023-08-17T08:16:01;16.23;;;8.52;;
73452;SDS011;61687;56.232;43.854;2023-08-17T08:18:26;13.50;;;8.27;;
73452;SDS011;61687;56.232;43.854;2023-08-17T08:20:52;12.82;;;8.43;;
73452;SDS011;61687;56.232;43.854;2023-08-17T08:23:18;15.37;;;9.03;;
73452;SDS011;61687;56.232;43.854;2023-08-17T08:25:44;11.15;;;8.75;;
73452;SDS011;61687;56.232;43.854;2023-08-17T08:28:10;13.95;;;8.30;;
73452;SDS011;61687;56.232;43.854;2023-08-17T08:30:36;16.43;;;8.70;;
73452;SDS011;61687;56.232;43.854;2023-08-17T08:33:01;12.73;;;8.50;;
73452;SDS011;61687;56.232;43.854;2023-08-17T08:35:28;13.15;;;8.25;;
73452;SDS011;61687;56.232;43.854;2023-08-17T08:37:54;13.52;;;7.97;;
73452;SDS011;61687;56.232;43.854;2023-08-17T08:40:28;10.67;;;8.07;;
73452;SDS011;61687;56.232;43.854;2023-08-17T08:42:57;17.00;;;8.15;;
73452;SDS011;61687;56.232;43.854;2023-08-17T08:45:23;13.07;;;9.00;;
73452;SDS011;61687;56.232;43.854;2023-08-17T08:47:49;13.20;;;8.25;;
73452;SDS011;61687;56.232;43.854;2023-08-17T08:50:19;12.50;;;8.13;;
73452;SDS011;61687;56.232;43.854;2023-08-17T08:52:58;12.40;;;8.35;;
73452;SDS011;61687;56.232;43.854;2023-08-17T08:55:29;12.00;;;8.93;;
73452;SDS011;61687;56.232;43.854;2023-08-17T08:57:59;10.75;;;8.63;;
73452;SDS011;61687;56.232;43.854;2023-08-17T09:00:26;12.90;;;8.38;;
73452;SDS011;61687;56.232;43.854;2023-08-17T09:02:52;11.40;;;7.70;;
73452;SDS011;61687;56.232;43.854;2023-08-17T09:05:19;14.40;;;8.75;;
73452;SDS011;61687;56.232;43.854;2023-08-17T09:07:48;13.07;;;8.63;;
73452;SDS011;61687;56.232;43.854;2023-08-17T09:10:15;12.70;;;9.25;;
73452;SDS011;61687;56.232;43.854;2023-08-17T09:12:43;11.10;;;7.90;;
73452;SDS011;61687;56.232;43.854;2023-08-17T09:15:10;12.03;;;7.83;;
73452;SDS011;61687;56.232;43.854;2023-08-17T09:17:37;14.40;;;8.23;;
73452;SDS011;61687;56.232;43.854;2023-08-17T09:20:04;11.93;;;8.35;;
73452;SDS011;61687;56.232;43.854;2023-08-17T09:22:42;13.35;;;8.48;;
73452;SDS011;61687;56.232;43.854;2023-08-17T09:25:09;16.00;;;8.65;;
73452;SDS011;61687;56.232;43.854;2023-08-17T09:27:36;16.60;;;8.87;;
73452;SDS011;61687;56.232;43.854;2023-08-17T09:32:34;14.05;;;8.57;;
73452;SDS011;61687;56.232;43.854;2023-08-17T09:35:01;14.43;;;8.35;;
73452;SDS011;61687;56.232;43.854;2023-08-17T09:37:31;15.98;;;8.68;;
73452;SDS011;61687;56.232;43.854;2023-08-17T09:39:57;14.90;;;8.63;;
73452;SDS011;61687;56.232;43.854;2023-08-17T09:42:23;13.65;;;8.70;;
73452;SDS011;61687;56.232;43.854;2023-08-17T09:44:54;12.30;;;8.02;;
73452;SDS011;61687;56.232;43.854;2023-08-17T09:47:22;15.20;;;9.07;;
73452;SDS011;61687;56.232;43.854;2023-08-17T09:49:49;13.97;;;8.50;;
73452;SDS011;61687;56.232;43.854;2023-08-17T09:52:18;11.43;;;8.13;;
73452;SDS011;61687;56.232;43.854;2023-08-17T09:54:45;14.05;;;7.72;;
73452;SDS011;61687;56.232;43.854;2023-08-17T09:57:15;15.25;;;8.25;;
73452;SDS011;61687;56.232;43.854;2023-08-17T09:59:41;18.00;;;8.60;;
73452;SDS011;61687;56.232;43.854;2023-08-17T10:02:11;14.52;;;8.68;;
73452;SDS011;61687;56.232;43.854;2023-08-17T10:04:44;14.73;;;8.17;;
73452;SDS011;61687;56.232;43.854;2023-08-17T10:07:15;14.70;;;8.55;;
73452;SDS011;61687;56.232;43.854;2023-08-17T10:09:44;12.20;;;8.27;;
73452;SDS011;61687;56.232;43.854;2023-08-17T10:12:15;12.10;;;8.10;;
73452;SDS011;61687;56.232;43.854;2023-08-17T10:14:53;14.45;;;8.50;;
73452;SDS011;61687;56.232;43.854;2023-08-17T10:17:26;13.07;;;8.63;;
73452;SDS011;61687;56.232;43.854;2023-08-17T10:19:57;15.45;;;7.78;;
73452;SDS011;61687;56.232;43.854;2023-08-17T10:25:08;13.70;;;8.63;;
73452;SDS011;61687;56.232;43.854;2023-08-17T10:27:37;10.98;;;7.85;;
73452;SDS011;61687;56.232;43.854;2023-08-17T10:30:03;14.10;;;7.90;;
73452;SDS011;61687;56.232;43.854;2023-08-17T10:32:30;13.38;;;7.70;;
73452;SDS011;61687;56.232;43.854;2023-08-17T10:34:56;13.55;;;8.23;;
73452;SDS011;61687;56.232;43.854;2023-08-17T10:37:24;10.77;;;8.30;;
73452;SDS011;61687;56.232;43.854;2023-08-17T10:39:50;17.70;;;8.20;;
73452;SDS011;61687;56.232;43.854;2023-08-17T10:42:29;15.77;;;8.73;;
73452;SDS011;61687;56.232;43.854;2023-08-17T10:50:30;13.65;;;7.93;;
73452;SDS011;61687;56.232;43.854;2023-08-17T10:52:58;12.93;;;7.68;;
73452;SDS011;61687;56.232;43.854;2023-08-17T10:55:39;11.77;;;7.70;;
73452;SDS011;61687;56.232;43.854;2023-08-17T10:58:06;13.23;;;7.88;;
73452;SDS011;61687;56.232;43.854;2023-08-17T11:00:37;13.57;;;7.70;;
73452;SDS011;61687;56.232;43.854;2023-08-17T11:03:04;11.18;;;7.70;;
73452;SDS011;61687;56.232;43.854;2023-08-17T11:13:39;12.02;;;7.65;;
73452;SDS011;61687;56.232;43.854;2023-08-17T11:16:07;13.73;;;7.72;;
73452;SDS011;61687;56.232;43.854;2023-08-17T11:18:34;11.52;;;7.70;;
73452;SDS011;61687;56.232;43.854;2023-08-17T11:21:01;13.50;;;8.27;;
73452;SDS011;61687;56.232;43.854;2023-08-17T11:23:29;16.38;;;8.10;;
73452;SDS011;61687;56.232;43.854;2023-08-17T11:25:56;18.35;;;7.97;;
73452;SDS011;61687;56.232;43.854;2023-08-17T11:28:22;12.43;;;7.90;;
73452;SDS011;61687;56.232;43.854;2023-08-17T11:30:59;11.70;;;7.72;;
73452;SDS011;61687;56.232;43.854;2023-08-17T11:33:26;12.93;;;7.20;;
73452;SDS011;61687;56.232;43.854;2023-08-17T11:35:56;11.25;;;8.18;;
73452;SDS011;61687;56.232;43.854;2023-08-17T11:38:23;15.55;;;7.82;;
73452;SDS011;61687;56.232;43.854;2023-08-17T11:40:49;11.80;;;7.65;;
73452;SDS011;61687;56.232;43.854;2023-08-17T11:43:16;14.90;;;7.67;;
73452;SDS011;61687;56.232;43.854;2023-08-17T11:45:42;12.52;;;8.10;;
73452;SDS011;61687;56.232;43.854;2023-08-17T11:48:08;15.05;;;8.00;;
73452;SDS011;61687;56.232;43.854;2023-08-17T11:50:35;15.45;;;8.15;;
73452;SDS011;61687;56.232;43.854;2023-08-17T11:53:01;11.07;;;7.53;;
73452;SDS011;61687;56.232;43.854;2023-08-17T11:55:27;11.83;;;7.33;;
73452;SDS011;61687;56.232;43.854;2023-08-17T11:57:53;11.90;;;7.70;;
73452;SDS011;61687;56.232;43.854;2023-08-17T12:00:19;12.20;;;7.50;;
73452;SDS011;61687;56.232;43.854;2023-08-17T12:02:49;8.93;;;7.15;;
73452;SDS011;61687;56.232;43.854;2023-08-17T12:05:22;9.80;;;7.70;;
73452;SDS011;61687;56.232;43.854;2023-08-17T12:07:50;11.80;;;7.20;;
73452;SDS011;61687;56.232;43.854;2023-08-17T12:10:18;14.23;;;7.72;;
73452;SDS011;61687;56.232;43.854;2023-08-17T12:12:48;13.23;;;7.85;;
73452;SDS011;61687;56.232;43.854;2023-08-17T12:15:17;9.90;;;7.47;;
73452;SDS011;61687;56.232;43.854;2023-08-17T12:17:44;13.67;;;7.80;;
73452;SDS011;61687;56.232;43.854;2023-08-17T12:20:17;15.40;;;7.85;;
73452;SDS011;61687;56.232;43.854;2023-08-17T12:22:44;12.00;;;7.18;;
73452;SDS011;61687;56.232;43.854;2023-08-17T12:25:10;11.95;;;7.05;;
73452;SDS011;61687;56.232;43.854;2023-08-17T12:27:36;10.00;;;7.38;;
73452;SDS011;61687;56.232;43.854;2023-08-17T12:30:02;9.90;;;7.10;;
73452;SDS011;61687;56.232;43.854;2023-08-17T12:32:29;14.43;;;7.53;;
73452;SDS011;61687;56.232;43.854;2023-08-17T12:34:55;10.95;;;7.70;;
73452;SDS011;61687;56.232;43.854;2023-08-17T12:37:21;11.25;;;7.65;;
73452;SDS011;61687;56.232;43.854;2023-08-17T12:39:47;13.73;;;8.23;;
73452;SDS011;61687;56.232;43.854;2023-08-17T12:42:14;15.70;;;7.53;;
73452;SDS011;61687;56.232;43.854;2023-08-17T12:44:40;9.75;;;7.25;;
73452;SDS011;61687;56.232;43.854;2023-08-17T12:47:06;10.23;;;7.00;;
73452;SDS011;61687;56.232;43.854;2023-08-17T12:49:32;14.63;;;7.03;;
73452;SDS011;61687;56.232;43.854;2023-08-17T12:51:58;14.30;;;6.75;;
73452;SDS011;61687;56.232;43.854;2023-08-17T12:54:24;15.93;;;6.97;;
73452;SDS011;61687;56.232;43.854;2023-08-17T12:56:50;11.80;;;7.88;;
73452;SDS011;61687;56.232;43.854;2023-08-17T12:59:15;10.50;;;7.70;;
73452;SDS011;61687;56.232;43.854;2023-08-17T13:01:41;11.23;;;7.83;;
73452;SDS011;61687;56.232;43.854;2023-08-17T13:04:07;14.52;;;7.82;;
73452;SDS011;61687;56.232;43.854;2023-08-17T13:06:33;9.95;;;7.00;;
73452;SDS011;61687;56.232;43.854;2023-08-17T13:08:59;13.60;;;7.30;;
73452;SDS011;61687;56.232;43.854;2023-08-17T13:11:25;12.52;;;7.20;;
73452;SDS011;61687;56.232;43.854;2023-08-17T13:13:50;10.13;;;7.13;;
73452;SDS011;61687;56.232;43.854;2023-08-17T13:16:16;9.25;;;6.72;;
73452;SDS011;61687;56.232;43.854;2023-08-17T13:18:42;11.57;;;7.05;;
73452;SDS011;61687;56.232;43.854;2023-08-17T13:21:08;10.50;;;7.70;;
73452;SDS011;61687;56.232;43.854;2023-08-17T13:23:34;7.82;;;6.57;;
73452;SDS011;61687;56.232;43.854;2023-08-17T13:25:59;11.55;;;7.07;;
73452;SDS011;61687;56.232;43.854;2023-08-17T13:28:25;9.97;;;6.80;;
73452;SDS011;61687;56.232;43.854;2023-08-17T13:30:51;15.48;;;6.93;;
73452;SDS011;61687;56.232;43.854;2023-08-17T13:33:17;9.77;;;6.82;;
73452;SDS011;61687;56.232;43.854;2023-08-17T13:35:43;11.70;;;7.30;;
73452;SDS011;61687;56.232;43.854;2023-08-17T13:38:09;9.83;;;6.33;;
73452;SDS011;61687;56.232;43.854;2023-08-17T13:40:36;11.50;;;6.57;;
73452;SDS011;61687;56.232;43.854;2023-08-17T13:43:04;19.83;;;7.07;;
73452;SDS011;61687;56.232;43.854;2023-08-17T13:45:33;13.20;;;6.85;;
73452;SDS011;61687;56.232;43.854;2023-08-17T13:47:59;10.80;;;6.87;;
73452;SDS011;61687;56.232;43.854;2023-08-17T13:50:26;13.02;;;6.30;;
73452;SDS011;61687;56.232;43.854;2023-08-17T13:52:52;10.93;;;6.90;;
73452;SDS011;61687;56.232;43.854;2023-08-17T13:55:19;11.73;;;7.03;;
73452;SDS011;61687;56.232;43.854;2023-08-17T13:57:45;11.80;;;6.43;;
73452;SDS011;61687;56.232;43.854;2023-08-17T14:00:11;9.90;;;6.38;;
73452;SDS011;61687;56.232;43.854;2023-08-17T14:02:38;11.77;;;7.05;;
73452;SDS011;61687;56.232;43.854;2023-08-17T14:05:04;13.57;;;6.47;;
73452;SDS011;61687;56.232;43.854;2023-08-17T14:07:30;9.47;;;6.80;;
73452;SDS011;61687;56.232;43.854;2023-08-17T14:09:56;12.60;;;6.53;;
73452;SDS011;61687;56.232;43.854;2023-08-17T14:12:21;12.25;;;7.50;;
73452;SDS011;61687;56.232;43.854;2023-08-17T14:14:47;12.37;;;7.30;;
73452;SDS011;61687;56.232;43.854;2023-08-17T14:17:13;12.55;;;7.07;;
73452;SDS011;61687;56.232;43.854;2023-08-17T14:19:39;12.45;;;6.55;;
73452;SDS011;61687;56.232;43.854;2023-08-17T14:22:05;13.47;;;6.97;;
73452;SDS011;61687;56.232;43.854;2023-08-17T14:24:31;10.25;;;7.20;;
73452;SDS011;61687;56.232;43.854;2023-08-17T14:26:56;12.60;;;6.53;;
73452;SDS011;61687;56.232;43.854;2023-08-17T14:29:23;11.83;;;6.90;;
73452;SDS011;61687;56.232;43.854;2023-08-17T14:31:49;10.20;;;7.10;;
73452;SDS011;61687;56.232;43.854;2023-08-17T14:34:15;12.88;;;7.47;;
73452;SDS011;61687;56.232;43.854;2023-08-17T14:36:40;10.70;;;7.97;;